sensor_id;sensor_type;location;lat;lon;timestamp;P1;durP1;ratioP1;P2;durP2;ratioP2
41261;SDS011;29629;52.532;13.352;2022-07-10T00:00:24;13.93;;;2.60;;
41261;SDS011;29629;52.532;13.352;2022-07-10T00:02:52;13.80;;;2.53;;
41261;SDS011;29629;52.532;13.352;2022-07-10T00:05:19;18.80;;;3.83;;
41261;SDS011;29629;52.532;13.352;2022-07-10T00:07:50;20.23;;;3.42;;
41261;SDS011;29629;52.532;13.352;2022-07-10T00:10:17;9.70;;;2.13;;
41261;SDS011;29629;52.532;13.352;2022-07-10T00:12:44;11.48;;;2.30;;
41261;SDS011;29629;52.532;13.352;2022-07-10T00:15:12;15.93;;;2.92;;
41261;SDS011;29629;52.532;13.352;2022-07-10T00:17:39;14.00;;;2.40;;
41261;SDS011;29629;52.532;13.352;2022-07-10T00:20:06;15.85;;;2.55;;
41261;SDS011;29629;52.532;13.352;2022-07-10T00:22:35;14.35;;;2.78;;
41261;SDS011;29629;52.532;13.352;2022-07-10T00:25:04;11.73;;;2.15;;
41261;SDS011;29629;52.532;13.352;2022-07-10T00:27:33;13.10;;;2.17;;
41261;SDS011;29629;52.532;13.352;2022-07-10T00:30:00;12.02;;;2.45;;
41261;SDS011;29629;52.532;13.352;2022-07-10T00:32:27;15.00;;;2.75;;
41261;SDS011;29629;52.532;13.352;2022-07-10T00:34:54;12.68;;;2.47;;
41261;SDS011;29629;52.532;13.352;2022-07-10T00:37:21;10.82;;;2.63;;
41261;SDS011;29629;52.532;13.352;2022-07-10T00:39:48;20.30;;;3.95;;
41261;SDS011;29629;52.532;13.352;2022-07-10T00:42:16;15.18;;;3.20;;
41261;SDS011;29629;52.532;13.352;2022-07-10T00:44:43;14.98;;;2.88;;
41261;SDS011;29629;52.532;13.352;2022-07-10T00:47:10;13.65;;;2.40;;
41261;SDS011;29629;52.532;13.352;2022-07-10T00:49:39;12.95;;;2.28;;
41261;SDS011;29629;52.532;13.352;2022-07-10T00:52:06;10.55;;;2.00;;
41261;SDS011;29629;52.532;13.352;2022-07-10T00:54:35;23.15;;;4.38;;
41261;SDS011;29629;52.532;13.352;2022-07-10T00:57:03;10.73;;;2.25;;
41261;SDS011;29629;52.532;13.352;2022-07-10T00:59:33;13.85;;;2.40;;
41261;SDS011;29629;52.532;13.352;2022-07-10T01:02:00;16.90;;;2.63;;
41261;SDS011;29629;52.532;13.352;2022-07-10T01:04:27;20.42;;;4.20;;
41261;SDS011;29629;52.532;13.352;2022-07-10T01:06:54;12.07;;;2.08;;
41261;SDS011;29629;52.532;13.352;2022-07-10T01:09:20;13.23;;;2.58;;
41261;SDS011;29629;52.532;13.352;2022-07-10T01:11:47;15.27;;;3.17;;
41261;SDS011;29629;52.532;13.352;2022-07-10T01:14:14;15.25;;;3.28;;
41261;SDS011;29629;52.532;13.352;2022-07-10T01:16:43;10.55;;;2.38;;
41261;SDS011;29629;52.532;13.352;2022-07-10T01:19:10;20.02;;;4.22;;
41261;SDS011;29629;52.532;13.352;2022-07-10T01:21:38;12.93;;;2.38;;
41261;SDS011;29629;52.532;13.352;2022-07-10T01:24:05;10.45;;;1.83;;
41261;SDS011;29629;52.532;13.352;2022-07-10T01:26:33;20.52;;;3.83;;
41261;SDS011;29629;52.532;13.352;2022-07-10T01:29:02;13.52;;;2.63;;
41261;SDS011;29629;52.532;13.352;2022-07-10T01:31:31;14.82;;;2.60;;
41261;SDS011;29629;52.532;13.352;2022-07-10T01:33:59;13.50;;;2.40;;
41261;SDS011;29629;52.532;13.352;2022-07-10T01:36:27;16.15;;;3.03;;
41261;SDS011;29629;52.532;13.352;2022-07-10T01:38:57;11.20;;;2.25;;
41261;SDS011;29629;52.532;13.352;2022-07-10T01:41:24;13.13;;;2.40;;
41261;SDS011;29629;52.532;13.352;2022-07-10T01:43:51;10.73;;;2.13;;
41261;SDS011;29629;52.532;13.352;2022-07-10T01:46:19;12.30;;;2.35;;
41261;SDS011;29629;52.532;13.352;2022-07-10T01:48:46;11.57;;;2.10;;
41261;SDS011;29629;52.532;13.352;2022-07-10T01:51:13;12.40;;;2.65;;
41261;SDS011;29629;52.532;13.352;2022-07-10T01:53:40;12.45;;;2.22;;
41261;SDS011;29629;52.532;13.352;2022-07-10T01:56:09;13.00;;;2.45;;
41261;SDS011;29629;52.532;13.352;2022-07-10T01:58:38;12.15;;;2.33;;
41261;SDS011;29629;52.532;13.352;2022-07-10T02:01:05;12.98;;;2.40;;
41261;SDS011;29629;52.532;13.352;2022-07-10T02:03:32;13.93;;;2.47;;
41261;SDS011;29629;52.532;13.352;2022-07-10T02:06:17;10.02;;;1.88;;
41261;SDS011;29629;52.532;13.352;2022-07-10T02:08:44;13.00;;;2.38;;
41261;SDS011;29629;52.532;13.352;2022-07-10T02:11:12;15.57;;;2.80;;
41261;SDS011;29629;52.532;13.352;2022-07-10T02:13:39;9.48;;;2.10;;
41261;SDS011;29629;52.532;13.352;2022-07-10T02:16:06;16.52;;;3.03;;
41261;SDS011;29629;52.532;13.352;2022-07-10T02:18:33;7.47;;;1.55;;
41261;SDS011;29629;52.532;13.352;2022-07-10T02:21:00;9.63;;;2.00;;
41261;SDS011;29629;52.532;13.352;2022-07-10T02:23:27;14.52;;;2.60;;
41261;SDS011;29629;52.532;13.352;2022-07-10T02:25:54;14.77;;;2.45;;
41261;SDS011;29629;52.532;13.352;2022-07-10T02:28:22;13.73;;;1.90;;
41261;SDS011;29629;52.532;13.352;2022-07-10T02:30:49;10.27;;;1.95;;
41261;SDS011;29629;52.532;13.352;2022-07-10T02:33:16;12.73;;;2.80;;
41261;SDS011;29629;52.532;13.352;2022-07-10T02:35:43;14.55;;;2.30;;
41261;SDS011;29629;52.532;13.352;2022-07-10T02:38:10;11.93;;;2.25;;
41261;SDS011;29629;52.532;13.352;2022-07-10T02:40:36;11.02;;;2.15;;
41261;SDS011;29629;52.532;13.352;2022-07-10T02:43:03;15.30;;;2.75;;
41261;SDS011;29629;52.532;13.352;2022-07-10T02:45:31;10.70;;;2.03;;
41261;SDS011;29629;52.532;13.352;2022-07-10T02:47:58;6.30;;;1.50;;
41261;SDS011;29629;52.532;13.352;2022-07-10T02:50:25;18.27;;;2.60;;
41261;SDS011;29629;52.532;13.352;2022-07-10T02:52:52;9.50;;;1.75;;
41261;SDS011;29629;52.532;13.352;2022-07-10T02:55:19;7.18;;;1.55;;
41261;SDS011;29629;52.532;13.352;2022-07-10T02:57:45;12.77;;;2.28;;
41261;SDS011;29629;52.532;13.352;2022-07-10T03:00:12;11.57;;;2.00;;
41261;SDS011;29629;52.532;13.352;2022-07-10T03:02:41;9.20;;;2.33;;
41261;SDS011;29629;52.532;13.352;2022-07-10T03:05:08;11.00;;;2.13;;
41261;SDS011;29629;52.532;13.352;2022-07-10T03:07:35;9.60;;;1.92;;
41261;SDS011;29629;52.532;13.352;2022-07-10T03:10:02;1.98;;;0.75;;
41261;SDS011;29629;52.532;13.352;2022-07-10T03:12:29;13.20;;;2.20;;
41261;SDS011;29629;52.532;13.352;2022-07-10T03:14:56;9.35;;;2.20;;
41261;SDS011;29629;52.532;13.352;2022-07-10T03:17:24;11.40;;;2.35;;
41261;SDS011;29629;52.532;13.352;2022-07-10T03:19:52;12.38;;;2.28;;
41261;SDS011;29629;52.532;13.352;2022-07-10T03:22:19;15.50;;;2.55;;
41261;SDS011;29629;52.532;13.352;2022-07-10T03:24:46;6.95;;;1.25;;
41261;SDS011;29629;52.532;13.352;2022-07-10T03:27:14;16.70;;;2.67;;
41261;SDS011;29629;52.532;13.352;2022-07-10T03:29:40;12.30;;;2.20;;
41261;SDS011;29629;52.532;13.352;2022-07-10T03:32:07;11.52;;;1.98;;
41261;SDS011;29629;52.532;13.352;2022-07-10T03:34:34;25.17;;;5.03;;
41261;SDS011;29629;52.532;13.352;2022-07-10T03:37:03;17.13;;;2.67;;
41261;SDS011;29629;52.532;13.352;2022-07-10T03:39:30;8.38;;;1.83;;
41261;SDS011;29629;52.532;13.352;2022-07-10T03:41:57;10.45;;;2.13;;
41261;SDS011;29629;52.532;13.352;2022-07-10T03:44:24;16.98;;;3.33;;
41261;SDS011;29629;52.532;13.352;2022-07-10T03:46:51;10.55;;;2.20;;
41261;SDS011;29629;52.532;13.352;2022-07-10T03:49:17;14.38;;;2.47;;
41261;SDS011;29629;52.532;13.352;2022-07-10T03:51:44;13.68;;;3.28;;
41261;SDS011;29629;52.532;13.352;2022-07-10T03:54:12;9.65;;;2.03;;
41261;SDS011;29629;52.532;13.352;2022-07-10T03:56:39;7.68;;;1.67;;
41261;SDS011;29629;52.532;13.352;2022-07-10T03:59:24;19.80;;;2.78;;
41261;SDS011;29629;52.532;13.352;2022-07-10T04:01:50;8.02;;;1.23;;
41261;SDS011;29629;52.532;13.352;2022-07-10T04:04:17;16.30;;;2.45;;
41261;SDS011;29629;52.532;13.352;2022-07-10T04:06:44;7.60;;;1.88;;
41261;SDS011;29629;52.532;13.352;2022-07-10T04:09:12;13.35;;;2.13;;
41261;SDS011;29629;52.532;13.352;2022-07-10T04:11:39;8.82;;;1.98;;
41261;SDS011;29629;52.532;13.352;2022-07-10T04:14:06;11.05;;;1.98;;
41261;SDS011;29629;52.532;13.352;2022-07-10T04:16:32;13.32;;;2.55;;
41261;SDS011;29629;52.532;13.352;2022-07-10T04:18:59;10.23;;;2.03;;
41261;SDS011;29629;52.532;13.352;2022-07-10T04:21:26;7.40;;;1.05;;
41261;SDS011;29629;52.532;13.352;2022-07-10T04:23:53;12.05;;;1.85;;
41261;SDS011;29629;52.532;13.352;2022-07-10T04:26:21;10.80;;;2.72;;
41261;SDS011;29629;52.532;13.352;2022-07-10T04:28:48;10.02;;;2.08;;
41261;SDS011;29629;52.532;13.352;2022-07-10T04:31:15;15.15;;;2.83;;
41261;SDS011;29629;52.532;13.352;2022-07-10T04:33:42;9.35;;;1.40;;
41261;SDS011;29629;52.532;13.352;2022-07-10T04:36:09;12.20;;;2.17;;
41261;SDS011;29629;52.532;13.352;2022-07-10T04:38:35;11.50;;;2.15;;
41261;SDS011;29629;52.532;13.352;2022-07-10T04:41:02;11.43;;;2.63;;
41261;SDS011;29629;52.532;13.352;2022-07-10T04:43:30;14.80;;;2.65;;
41261;SDS011;29629;52.532;13.352;2022-07-10T04:45:57;14.82;;;2.83;;
41261;SDS011;29629;52.532;13.352;2022-07-10T04:48:24;8.75;;;1.95;;
41261;SDS011;29629;52.532;13.352;2022-07-10T04:50:51;11.65;;;2.25;;
41261;SDS011;29629;52.532;13.352;2022-07-10T04:53:18;14.07;;;2.55;;
41261;SDS011;29629;52.532;13.352;2022-07-10T04:55:45;9.20;;;1.70;;
41261;SDS011;29629;52.532;13.352;2022-07-10T04:58:12;10.25;;;1.98;;
41261;SDS011;29629;52.532;13.352;2022-07-10T05:00:40;12.43;;;2.28;;
41261;SDS011;29629;52.532;13.352;2022-07-10T05:03:07;8.60;;;2.15;;
41261;SDS011;29629;52.532;13.352;2022-07-10T05:05:34;17.15;;;2.95;;
41261;SDS011;29629;52.532;13.352;2022-07-10T05:08:00;15.43;;;2.85;;
41261;SDS011;29629;52.532;13.352;2022-07-10T05:10:27;16.02;;;2.50;;
41261;SDS011;29629;52.532;13.352;2022-07-10T05:12:54;14.73;;;2.53;;
41261;SDS011;29629;52.532;13.352;2022-07-10T05:15:21;13.45;;;1.90;;
41261;SDS011;29629;52.532;13.352;2022-07-10T05:17:49;13.48;;;2.80;;
41261;SDS011;29629;52.532;13.352;2022-07-10T05:20:16;11.57;;;2.40;;
41261;SDS011;29629;52.532;13.352;2022-07-10T05:22:42;13.77;;;2.63;;
41261;SDS011;29629;52.532;13.352;2022-07-10T05:25:09;9.95;;;3.30;;
41261;SDS011;29629;52.532;13.352;2022-07-10T05:27:36;11.68;;;2.47;;
41261;SDS011;29629;52.532;13.352;2022-07-10T05:30:03;13.10;;;2.63;;
41261;SDS011;29629;52.532;13.352;2022-07-10T05:32:30;16.92;;;2.58;;
41261;SDS011;29629;52.532;13.352;2022-07-10T05:34:59;13.90;;;2.38;;
41261;SDS011;29629;52.532;13.352;2022-07-10T05:37:26;17.92;;;3.08;;
41261;SDS011;29629;52.532;13.352;2022-07-10T05:39:53;11.82;;;1.95;;
41261;SDS011;29629;52.532;13.352;2022-07-10T05:42:19;16.95;;;2.50;;
41261;SDS011;29629;52.532;13.352;2022-07-10T05:44:46;15.32;;;3.00;;
41261;SDS011;29629;52.532;13.352;2022-07-10T05:47:13;22.55;;;3.92;;
41261;SDS011;29629;52.532;13.352;2022-07-10T05:49:40;12.32;;;2.42;;
41261;SDS011;29629;52.532;13.352;2022-07-10T05:52:08;8.90;;;1.85;;
41261;SDS011;29629;52.532;13.352;2022-07-10T05:54:35;23.77;;;5.15;;
41261;SDS011;29629;52.532;13.352;2022-07-10T05:57:01;11.30;;;2.30;;
41261;SDS011;29629;52.532;13.352;2022-07-10T05:59:29;15.23;;;3.85;;
41261;SDS011;29629;52.532;13.352;2022-07-10T06:01:59;15.85;;;2.90;;
41261;SDS011;29629;52.532;13.352;2022-07-10T06:04:26;22.65;;;3.97;;
41261;SDS011;29629;52.532;13.352;2022-07-10T06:06:53;11.88;;;2.40;;
41261;SDS011;29629;52.532;13.352;2022-07-10T06:09:21;20.48;;;3.25;;
41261;SDS011;29629;52.532;13.352;2022-07-10T06:11:48;7.18;;;1.42;;
41261;SDS011;29629;52.532;13.352;2022-07-10T06:14:15;15.18;;;2.63;;
41261;SDS011;29629;52.532;13.352;2022-07-10T06:16:41;12.73;;;2.58;;
41261;SDS011;29629;52.532;13.352;2022-07-10T06:19:08;14.85;;;2.63;;
41261;SDS011;29629;52.532;13.352;2022-07-10T06:21:35;12.38;;;3.08;;
41261;SDS011;29629;52.532;13.352;2022-07-10T06:24:02;10.48;;;2.05;;
41261;SDS011;29629;52.532;13.352;2022-07-10T06:26:30;14.40;;;2.45;;
41261;SDS011;29629;52.532;13.352;2022-07-10T06:28:57;13.40;;;2.30;;
41261;SDS011;29629;52.532;13.352;2022-07-10T06:31:24;14.27;;;2.65;;
41261;SDS011;29629;52.532;13.352;2022-07-10T06:33:51;14.32;;;2.75;;
41261;SDS011;29629;52.532;13.352;2022-07-10T06:36:18;11.32;;;1.98;;
41261;SDS011;29629;52.532;13.352;2022-07-10T06:38:44;11.45;;;2.42;;
41261;SDS011;29629;52.532;13.352;2022-07-10T06:41:11;14.98;;;2.80;;
41261;SDS011;29629;52.532;13.352;2022-07-10T06:43:39;8.48;;;1.35;;
41261;SDS011;29629;52.532;13.352;2022-07-10T06:46:06;6.15;;;1.17;;
41261;SDS011;29629;52.532;13.352;2022-07-10T06:48:33;11.50;;;2.58;;
41261;SDS011;29629;52.532;13.352;2022-07-10T06:51:00;11.05;;;2.08;;
41261;SDS011;29629;52.532;13.352;2022-07-10T06:53:27;16.95;;;2.90;;
41261;SDS011;29629;52.532;13.352;2022-07-10T06:55:54;8.48;;;2.45;;
41261;SDS011;29629;52.532;13.352;2022-07-10T06:58:21;12.63;;;2.38;;
41261;SDS011;29629;52.532;13.352;2022-07-10T07:00:49;11.20;;;1.90;;
41261;SDS011;29629;52.532;13.352;2022-07-10T07:03:16;9.70;;;1.77;;
41261;SDS011;29629;52.532;13.352;2022-07-10T07:05:43;13.02;;;2.35;;
41261;SDS011;29629;52.532;13.352;2022-07-10T07:08:09;12.55;;;2.30;;
41261;SDS011;29629;52.532;13.352;2022-07-10T07:10:38;12.68;;;2.35;;
41261;SDS011;29629;52.532;13.352;2022-07-10T07:13:05;12.63;;;1.88;;
41261;SDS011;29629;52.532;13.352;2022-07-10T07:15:34;16.67;;;2.58;;
41261;SDS011;29629;52.532;13.352;2022-07-10T07:18:05;17.80;;;3.08;;
41261;SDS011;29629;52.532;13.352;2022-07-10T07:20:38;13.00;;;2.60;;
41261;SDS011;29629;52.532;13.352;2022-07-10T07:23:22;14.65;;;2.85;;
41261;SDS011;29629;52.532;13.352;2022-07-10T07:25:49;17.20;;;2.88;;
41261;SDS011;29629;52.532;13.352;2022-07-10T07:28:17;7.70;;;1.63;;
41261;SDS011;29629;52.532;13.352;2022-07-10T07:30:44;12.25;;;2.22;;
41261;SDS011;29629;52.532;13.352;2022-07-10T07:33:13;15.70;;;3.13;;
41261;SDS011;29629;52.532;13.352;2022-07-10T07:35:40;25.35;;;4.72;;
41261;SDS011;29629;52.532;13.352;2022-07-10T07:38:08;14.52;;;2.42;;
41261;SDS011;29629;52.532;13.352;2022-07-10T07:40:34;12.60;;;2.08;;
41261;SDS011;29629;52.532;13.352;2022-07-10T07:43:02;15.65;;;2.53;;
41261;SDS011;29629;52.532;13.352;2022-07-10T07:45:29;17.00;;;3.28;;
41261;SDS011;29629;52.532;13.352;2022-07-10T07:47:57;12.10;;;2.17;;
41261;SDS011;29629;52.532;13.352;2022-07-10T07:50:27;17.13;;;2.78;;
41261;SDS011;29629;52.532;13.352;2022-07-10T07:52:55;15.05;;;2.88;;
41261;SDS011;29629;52.532;13.352;2022-07-10T07:55:22;20.45;;;2.97;;
41261;SDS011;29629;52.532;13.352;2022-07-10T07:57:50;15.00;;;2.88;;
41261;SDS011;29629;52.532;13.352;2022-07-10T08:00:18;18.80;;;2.47;;
41261;SDS011;29629;52.532;13.352;2022-07-10T08:02:47;15.10;;;2.80;;
41261;SDS011;29629;52.532;13.352;2022-07-10T08:05:14;11.70;;;2.20;;
41261;SDS011;29629;52.532;13.352;2022-07-10T08:07:43;13.20;;;1.88;;
41261;SDS011;29629;52.532;13.352;2022-07-10T08:10:12;13.00;;;2.25;;
41261;SDS011;29629;52.532;13.352;2022-07-10T08:12:40;19.45;;;3.65;;
41261;SDS011;29629;52.532;13.352;2022-07-10T08:15:08;5.38;;;1.27;;
41261;SDS011;29629;52.532;13.352;2022-07-10T08:17:35;22.27;;;3.38;;
41261;SDS011;29629;52.532;13.352;2022-07-10T08:20:03;10.85;;;2.10;;
41261;SDS011;29629;52.532;13.352;2022-07-10T08:22:31;13.88;;;2.70;;
41261;SDS011;29629;52.532;13.352;2022-07-10T08:25:00;14.77;;;2.28;;
41261;SDS011;29629;52.532;13.352;2022-07-10T08:27:27;13.30;;;2.33;;
41261;SDS011;29629;52.532;13.352;2022-07-10T08:29:54;12.63;;;2.42;;
41261;SDS011;29629;52.532;13.352;2022-07-10T08:32:20;13.32;;;1.85;;
41261;SDS011;29629;52.532;13.352;2022-07-10T08:34:47;12.13;;;2.38;;
41261;SDS011;29629;52.532;13.352;2022-07-10T08:37:14;5.05;;;0.80;;
41261;SDS011;29629;52.532;13.352;2022-07-10T08:39:42;13.40;;;2.38;;
41261;SDS011;29629;52.532;13.352;2022-07-10T08:42:10;7.03;;;1.58;;
41261;SDS011;29629;52.532;13.352;2022-07-10T08:44:37;25.13;;;5.30;;
41261;SDS011;29629;52.532;13.352;2022-07-10T08:47:05;15.57;;;2.97;;
41261;SDS011;29629;52.532;13.352;2022-07-10T08:49:32;13.88;;;2.60;;
41261;SDS011;29629;52.532;13.352;2022-07-10T08:52:02;9.73;;;1.35;;
41261;SDS011;29629;52.532;13.352;2022-07-10T08:54:30;22.45;;;4.53;;
41261;SDS011;29629;52.532;13.352;2022-07-10T08:56:58;11.45;;;2.30;;
41261;SDS011;29629;52.532;13.352;2022-07-10T08:59:27;14.02;;;2.88;;
41261;SDS011;29629;52.532;13.352;2022-07-10T09:01:55;9.80;;;1.95;;
41261;SDS011;29629;52.532;13.352;2022-07-10T09:04:23;15.73;;;2.65;;
41261;SDS011;29629;52.532;13.352;2022-07-10T09:06:51;9.20;;;1.90;;
41261;SDS011;29629;52.532;13.352;2022-07-10T09:09:19;12.23;;;3.00;;
41261;SDS011;29629;52.532;13.352;2022-07-10T09:11:46;14.23;;;2.45;;
41261;SDS011;29629;52.532;13.352;2022-07-10T09:14:13;17.30;;;2.95;;
41261;SDS011;29629;52.532;13.352;2022-07-10T09:16:43;19.35;;;2.50;;
41261;SDS011;29629;52.532;13.352;2022-07-10T09:19:15;12.05;;;2.47;;
41261;SDS011;29629;52.532;13.352;2022-07-10T09:21:43;13.00;;;2.85;;
41261;SDS011;29629;52.532;13.352;2022-07-10T09:24:10;14.05;;;2.92;;
41261;SDS011;29629;52.532;13.352;2022-07-10T09:26:37;17.83;;;3.75;;
41261;SDS011;29629;52.532;13.352;2022-07-10T09:29:06;13.60;;;3.10;;
41261;SDS011;29629;52.532;13.352;2022-07-10T09:34:17;16.52;;;3.75;;
41261;SDS011;29629;52.532;13.352;2022-07-10T09:37:02;12.93;;;3.55;;
41261;SDS011;29629;52.532;13.352;2022-07-10T09:39:50;13.77;;;3.50;;
41261;SDS011;29629;52.532;13.352;2022-07-10T09:42:24;13.13;;;3.63;;
41261;SDS011;29629;52.532;13.352;2022-07-10T09:44:51;15.20;;;3.65;;
41261;SDS011;29629;52.532;13.352;2022-07-10T09:47:22;18.10;;;4.05;;
41261;SDS011;29629;52.532;13.352;2022-07-10T09:49:49;6.20;;;1.75;;
41261;SDS011;29629;52.532;13.352;2022-07-10T09:52:16;13.63;;;3.15;;
41261;SDS011;29629;52.532;13.352;2022-07-10T09:54:44;16.75;;;3.72;;
41261;SDS011;29629;52.532;13.352;2022-07-10T09:57:12;12.23;;;2.70;;
41261;SDS011;29629;52.532;13.352;2022-07-10T09:59:42;15.77;;;3.53;;
41261;SDS011;29629;52.532;13.352;2022-07-10T10:02:10;14.65;;;2.90;;
41261;SDS011;29629;52.532;13.352;2022-07-10T10:04:40;26.45;;;5.38;;
41261;SDS011;29629;52.532;13.352;2022-07-10T10:07:09;13.02;;;2.95;;
41261;SDS011;29629;52.532;13.352;2022-07-10T10:09:40;20.17;;;3.80;;
41261;SDS011;29629;52.532;13.352;2022-07-10T10:12:13;16.27;;;3.63;;
41261;SDS011;29629;52.532;13.352;2022-07-10T10:14:47;11.80;;;2.83;;
41261;SDS011;29629;52.532;13.352;2022-07-10T10:17:16;7.28;;;1.83;;
41261;SDS011;29629;52.532;13.352;2022-07-10T10:19:46;15.95;;;3.75;;
41261;SDS011;29629;52.532;13.352;2022-07-10T10:22:33;12.13;;;3.08;;
41261;SDS011;29629;52.532;13.352;2022-07-10T10:25:02;15.00;;;4.10;;
41261;SDS011;29629;52.532;13.352;2022-07-10T10:27:31;16.23;;;4.20;;
41261;SDS011;29629;52.532;13.352;2022-07-10T10:29:58;9.57;;;1.92;;
41261;SDS011;29629;52.532;13.352;2022-07-10T10:32:26;12.88;;;2.95;;
41261;SDS011;29629;52.532;13.352;2022-07-10T10:34:55;14.90;;;3.67;;
41261;SDS011;29629;52.532;13.352;2022-07-10T10:37:33;24.17;;;5.60;;
41261;SDS011;29629;52.532;13.352;2022-07-10T10:40:02;5.75;;;3.28;;
41261;SDS011;29629;52.532;13.352;2022-07-10T10:42:37;22.13;;;6.50;;
41261;SDS011;29629;52.532;13.352;2022-07-10T10:47:58;19.52;;;6.50;;
41261;SDS011;29629;52.532;13.352;2022-07-10T10:50:37;8.07;;;4.45;;
41261;SDS011;29629;52.532;13.352;2022-07-10T10:53:12;22.70;;;6.18;;
41261;SDS011;29629;52.532;13.352;2022-07-10T10:55:40;16.05;;;5.72;;
41261;SDS011;29629;52.532;13.352;2022-07-10T10:58:14;24.08;;;7.35;;
41261;SDS011;29629;52.532;13.352;2022-07-10T11:00:43;13.75;;;5.43;;
41261;SDS011;29629;52.532;13.352;2022-07-10T11:03:17;11.88;;;5.40;;
41261;SDS011;29629;52.532;13.352;2022-07-10T11:05:50;15.77;;;6.55;;
41261;SDS011;29629;52.532;13.352;2022-07-10T11:08:36;15.43;;;6.38;;
41261;SDS011;29629;52.532;13.352;2022-07-10T11:14:06;8.95;;;4.65;;
41261;SDS011;29629;52.532;13.352;2022-07-10T11:16:34;10.80;;;4.32;;
41261;SDS011;29629;52.532;13.352;2022-07-10T11:19:01;13.43;;;4.55;;
41261;SDS011;29629;52.532;13.352;2022-07-10T11:21:41;17.45;;;5.28;;
41261;SDS011;29629;52.532;13.352;2022-07-10T11:24:16;14.75;;;5.28;;
41261;SDS011;29629;52.532;13.352;2022-07-10T11:27:02;8.68;;;3.83;;
41261;SDS011;29629;52.532;13.352;2022-07-10T11:29:38;14.68;;;5.07;;
41261;SDS011;29629;52.532;13.352;2022-07-10T11:32:06;13.75;;;5.03;;
41261;SDS011;29629;52.532;13.352;2022-07-10T11:34:34;15.18;;;6.07;;
41261;SDS011;29629;52.532;13.352;2022-07-10T11:37:03;17.15;;;7.00;;
41261;SDS011;29629;52.532;13.352;2022-07-10T11:39:30;22.88;;;8.07;;
41261;SDS011;29629;52.532;13.352;2022-07-10T11:41:56;32.50;;;10.27;;
41261;SDS011;29629;52.532;13.352;2022-07-10T11:44:23;20.05;;;8.98;;
41261;SDS011;29629;52.532;13.352;2022-07-10T11:46:52;15.98;;;7.88;;
41261;SDS011;29629;52.532;13.352;2022-07-10T11:49:21;16.10;;;8.20;;
41261;SDS011;29629;52.532;13.352;2022-07-10T11:51:47;17.63;;;8.80;;
41261;SDS011;29629;52.532;13.352;2022-07-10T11:54:16;14.38;;;7.03;;
41261;SDS011;29629;52.532;13.352;2022-07-10T11:56:46;15.45;;;7.57;;
41261;SDS011;29629;52.532;13.352;2022-07-10T11:59:13;14.63;;;7.03;;
41261;SDS011;29629;52.532;13.352;2022-07-10T12:01:43;29.50;;;9.10;;
41261;SDS011;29629;52.532;13.352;2022-07-10T12:04:13;18.58;;;6.80;;
41261;SDS011;29629;52.532;13.352;2022-07-10T12:06:42;16.58;;;7.65;;
41261;SDS011;29629;52.532;13.352;2022-07-10T12:09:11;14.80;;;5.75;;
41261;SDS011;29629;52.532;13.352;2022-07-10T12:11:41;9.93;;;6.13;;
41261;SDS011;29629;52.532;13.352;2022-07-10T12:14:12;12.40;;;6.55;;
41261;SDS011;29629;52.532;13.352;2022-07-10T12:16:42;13.85;;;5.90;;
41261;SDS011;29629;52.532;13.352;2022-07-10T12:19:11;14.38;;;6.05;;
41261;SDS011;29629;52.532;13.352;2022-07-10T12:21:39;16.58;;;7.40;;
41261;SDS011;29629;52.532;13.352;2022-07-10T12:24:08;18.92;;;7.78;;
41261;SDS011;29629;52.532;13.352;2022-07-10T12:26:35;13.20;;;6.45;;
41261;SDS011;29629;52.532;13.352;2022-07-10T12:29:05;13.50;;;6.03;;
41261;SDS011;29629;52.532;13.352;2022-07-10T12:31:32;14.00;;;5.43;;
41261;SDS011;29629;52.532;13.352;2022-07-10T12:34:00;13.70;;;5.72;;
41261;SDS011;29629;52.532;13.352;2022-07-10T12:36:41;11.60;;;5.10;;
41261;SDS011;29629;52.532;13.352;2022-07-10T12:39:09;8.00;;;4.43;;
41261;SDS011;29629;52.532;13.352;2022-07-10T12:44:31;18.80;;;6.95;;
41261;SDS011;29629;52.532;13.352;2022-07-10T12:47:02;13.07;;;6.78;;
41261;SDS011;29629;52.532;13.352;2022-07-10T12:49:31;17.08;;;9.63;;
41261;SDS011;29629;52.532;13.352;2022-07-10T12:52:18;17.17;;;15.32;;
41261;SDS011;29629;52.532;13.352;2022-07-10T12:54:46;14.43;;;10.20;;
41261;SDS011;29629;52.532;13.352;2022-07-10T12:57:13;15.23;;;7.50;;
41261;SDS011;29629;52.532;13.352;2022-07-10T12:59:41;14.68;;;6.32;;
41261;SDS011;29629;52.532;13.352;2022-07-10T13:02:15;14.45;;;6.30;;
41261;SDS011;29629;52.532;13.352;2022-07-10T13:04:51;15.90;;;5.80;;
41261;SDS011;29629;52.532;13.352;2022-07-10T13:07:19;9.15;;;4.93;;
41261;SDS011;29629;52.532;13.352;2022-07-10T13:09:54;13.43;;;4.97;;
41261;SDS011;29629;52.532;13.352;2022-07-10T13:12:21;6.35;;;3.90;;
41261;SDS011;29629;52.532;13.352;2022-07-10T13:14:49;13.25;;;5.93;;
41261;SDS011;29629;52.532;13.352;2022-07-10T13:17:16;16.67;;;5.53;;
41261;SDS011;29629;52.532;13.352;2022-07-10T13:19:43;15.43;;;4.90;;
41261;SDS011;29629;52.532;13.352;2022-07-10T13:22:10;11.23;;;4.22;;
41261;SDS011;29629;52.532;13.352;2022-07-10T13:24:37;24.08;;;6.38;;
41261;SDS011;29629;52.532;13.352;2022-07-10T13:27:04;10.98;;;3.95;;
41261;SDS011;29629;52.532;13.352;2022-07-10T13:29:32;13.07;;;5.88;;
41261;SDS011;29629;52.532;13.352;2022-07-10T13:32:00;14.48;;;5.60;;
41261;SDS011;29629;52.532;13.352;2022-07-10T13:34:27;20.58;;;6.55;;
41261;SDS011;29629;52.532;13.352;2022-07-10T13:36:54;15.32;;;7.10;;
41261;SDS011;29629;52.532;13.352;2022-07-10T13:39:21;11.48;;;5.40;;
41261;SDS011;29629;52.532;13.352;2022-07-10T13:41:48;15.95;;;5.53;;
41261;SDS011;29629;52.532;13.352;2022-07-10T13:44:16;12.55;;;5.85;;
41261;SDS011;29629;52.532;13.352;2022-07-10T13:46:43;18.98;;;6.63;;
41261;SDS011;29629;52.532;13.352;2022-07-10T13:49:11;21.17;;;6.80;;
41261;SDS011;29629;52.532;13.352;2022-07-10T13:51:38;20.40;;;6.40;;
41261;SDS011;29629;52.532;13.352;2022-07-10T13:54:04;20.58;;;5.88;;
41261;SDS011;29629;52.532;13.352;2022-07-10T13:56:31;16.25;;;5.63;;
41261;SDS011;29629;52.532;13.352;2022-07-10T13:58:59;12.57;;;5.95;;
41261;SDS011;29629;52.532;13.352;2022-07-10T14:01:26;16.02;;;6.35;;
41261;SDS011;29629;52.532;13.352;2022-07-10T14:03:52;11.82;;;5.00;;
41261;SDS011;29629;52.532;13.352;2022-07-10T14:06:20;13.32;;;5.22;;
41261;SDS011;29629;52.532;13.352;2022-07-10T14:08:47;14.50;;;4.78;;
41261;SDS011;29629;52.532;13.352;2022-07-10T14:11:14;14.88;;;5.25;;
41261;SDS011;29629;52.532;13.352;2022-07-10T14:13:42;20.85;;;6.15;;
41261;SDS011;29629;52.532;13.352;2022-07-10T14:16:09;13.88;;;4.78;;
41261;SDS011;29629;52.532;13.352;2022-07-10T14:18:36;12.63;;;4.70;;
41261;SDS011;29629;52.532;13.352;2022-07-10T14:21:04;12.75;;;4.80;;
41261;SDS011;29629;52.532;13.352;2022-07-10T14:23:35;15.18;;;4.43;;
41261;SDS011;29629;52.532;13.352;2022-07-10T14:26:04;16.20;;;4.50;;
41261;SDS011;29629;52.532;13.352;2022-07-10T14:28:31;15.55;;;4.35;;
41261;SDS011;29629;52.532;13.352;2022-07-10T14:30:59;11.45;;;3.55;;
41261;SDS011;29629;52.532;13.352;2022-07-10T14:33:28;15.48;;;4.38;;
41261;SDS011;29629;52.532;13.352;2022-07-10T14:35:55;10.18;;;4.07;;
41261;SDS011;29629;52.532;13.352;2022-07-10T14:38:22;9.35;;;3.33;;
41261;SDS011;29629;52.532;13.352;2022-07-10T14:40:51;11.30;;;3.45;;